Time;durP1;ratioP1;P1;durP2;ratioP2;P2;SDS_P1;SDS_P2;PMS_P1;PMS_P2;Temp;Humidity;BMP_temperature;BMP_pressure;BME280_temperature;BME280_humidity;BME280_pressure;Samples;Min_cycle;Max_cycle;Signal;HPM_P1;HPM_P2
2021/12/23 00:00:35;;;;;;;49.35;24.30;;;;;;;-6.57;100.00;96501.31;5034645;28;20061;-76
2021/12/23 00:03:02;;;;;;;51.10;23.73;;;;;;;-6.57;100.00;96501.31;5049864;28;20032;-75
2021/12/23 00:05:29;;;;;;;52.75;25.75;;;;;;;-6.54;100.00;96501.22;5049626;28;20029;-76
2021/12/23 00:07:55;;;;;;;53.33;26.38;;;;;;;-6.58;100.00;96503.91;5037258;28;20033;-76
2021/12/23 00:10:21;;;;;;;47.93;23.73;;;;;;;-6.59;100.00;96500.50;5053715;28;20068;-76
2021/12/23 00:12:47;;;;;;;49.42;23.08;;;;;;;-6.59;100.00;96497.13;5052700;28;20482;-76
2021/12/23 00:15:23;;;;;;;49.30;24.97;;;;;;;-6.57;100.00;96490.22;5056425;28;20124;-76
2021/12/23 00:25:36;;;;;;;55.97;27.40;;;;;;;-6.53;100.00;96482.41;5051110;28;20033;-76
2021/12/23 00:28:02;;;;;;;49.70;24.50;;;;;;;-6.45;100.00;96477.03;5044457;28;20074;-76
2021/12/23 00:30:29;;;;;;;54.25;25.42;;;;;;;-6.44;100.00;96471.88;5049698;28;20474;-76
2021/12/23 00:32:56;;;;;;;48.40;23.17;;;;;;;-6.48;100.00;96475.41;5048156;28;20080;-75
2021/12/23 00:35:23;;;;;;;48.38;23.08;;;;;;;-6.47;100.00;96474.53;5035042;28;20048;-75
2021/12/23 00:37:56;;;;;;;52.05;24.45;;;;;;;-6.49;100.00;96471.19;5065092;28;20501;-75
2021/12/23 00:40:22;;;;;;;49.78;23.92;;;;;;;-6.54;100.00;96472.19;5037117;28;20040;-75
2021/12/23 00:42:48;;;;;;;54.77;26.00;;;;;;;-6.55;100.00;96476.50;5050584;28;20025;-76
2021/12/23 00:45:13;;;;;;;49.03;23.87;;;;;;;-6.56;100.00;96468.88;5049506;28;20108;-75
2021/12/23 00:47:39;;;;;;;46.83;24.63;;;;;;;-6.59;100.00;96474.94;5052297;28;20477;-76
2021/12/23 00:50:05;;;;;;;49.83;24.83;;;;;;;-6.56;100.00;96466.31;5037671;28;20406;-75
2021/12/23 00:52:39;;;;;;;47.40;23.05;;;;;;;-6.61;100.00;96466.44;5030744;28;20036;-75
2021/12/23 00:55:08;;;;;;;46.38;23.85;;;;;;;-6.66;100.00;96460.66;5048588;28;20102;-76
2021/12/23 00:57:38;;;;;;;46.80;22.50;;;;;;;-6.73;100.00;96456.63;5059319;28;20550;-76
2021/12/23 01:00:08;;;;;;;46.50;24.23;;;;;;;-6.78;100.00;96454.19;5031975;28;20032;-75
2021/12/23 01:02:34;;;;;;;53.38;25.65;;;;;;;-6.72;100.00;96454.00;5029290;28;20061;-75
2021/12/23 01:05:00;;;;;;;50.63;24.43;;;;;;;-6.74;100.00;96455.81;5048644;28;20108;-76
2021/12/23 01:07:28;;;;;;;44.17;23.17;;;;;;;-6.75;100.00;96455.84;5050041;28;20032;-76
2021/12/23 01:09:53;;;;;;;49.33;23.70;;;;;;;-6.74;100.00;96452.38;5041916;28;20024;-76
2021/12/23 01:12:25;;;;;;;52.90;25.45;;;;;;;-6.73;100.00;96456.63;5058171;28;20063;-75
2021/12/23 01:14:58;;;;;;;50.90;24.63;;;;;;;-6.81;100.00;96450.91;5046047;28;20025;-76
2021/12/23 01:19:56;;;;;;;49.92;24.30;;;;;;;-6.89;100.00;96433.25;5047674;28;20539;-76
2021/12/23 01:22:22;;;;;;;51.42;24.63;;;;;;;-6.86;100.00;96435.72;5028498;28;20116;-75
2021/12/23 01:24:50;;;;;;;46.80;24.52;;;;;;;-6.88;100.00;96425.53;5049993;28;20041;-75
2021/12/23 01:27:16;;;;;;;50.22;24.55;;;;;;;-6.88;100.00;96440.88;5051047;28;20056;-75
2021/12/23 01:29:42;;;;;;;49.05;24.02;;;;;;;-6.79;100.00;96444.03;5028736;28;20271;-75
2021/12/23 01:32:08;;;;;;;48.47;23.73;;;;;;;-6.76;100.00;96446.50;5048079;28;20029;-76
2021/12/23 01:34:35;;;;;;;46.05;22.88;;;;;;;-6.79;100.00;96451.72;5049898;28;20029;-76
2021/12/23 01:37:04;;;;;;;48.92;23.70;;;;;;;-6.80;100.00;96460.28;5048629;28;20090;-75
2021/12/23 01:39:30;;;;;;;50.90;25.00;;;;;;;-6.72;100.00;96458.31;5028603;28;20167;-76
2021/12/23 01:41:57;;;;;;;48.60;23.35;;;;;;;-6.71;100.00;96458.22;5031551;28;20023;-75
2021/12/23 01:44:22;;;;;;;48.75;23.85;;;;;;;-6.69;100.00;96453.09;5031613;28;20029;-76
2021/12/23 01:46:48;;;;;;;48.67;23.13;;;;;;;-6.67;100.00;96451.31;5030810;28;20475;-76
2021/12/23 01:49:15;;;;;;;51.30;25.03;;;;;;;-6.73;100.00;96449.78;5060235;28;20495;-76
2021/12/23 01:51:42;;;;;;;48.30;24.52;;;;;;;-6.70;100.00;96443.75;5051854;28;20044;-76
2021/12/23 01:54:08;;;;;;;51.22;24.35;;;;;;;-6.78;100.00;96446.53;5041773;28;20487;-76
2021/12/23 01:56:34;;;;;;;47.83;23.53;;;;;;;-6.86;100.00;96435.72;5045833;28;20082;-75
2021/12/23 01:58:59;;;;;;;52.77;25.27;;;;;;;-6.91;100.00;96423.09;5042576;28;20024;-75
2021/12/23 02:01:25;;;;;;;52.37;24.90;;;;;;;-6.89;100.00;96417.94;5045719;28;20056;-75
2021/12/23 02:03:51;;;;;;;52.40;25.23;;;;;;;-6.84;100.00;96420.31;5044085;28;20041;-76
2021/12/23 02:06:17;;;;;;;57.00;27.00;;;;;;;-6.72;100.00;96414.81;5027384;28;20118;-76
2021/12/23 02:08:44;;;;;;;61.50;29.97;;;;;;;-6.65;100.00;96414.56;5039929;28;20040;-76
2021/12/23 02:11:11;;;;;;;59.60;27.73;;;;;;;-6.50;100.00;96394.50;5047482;28;20029;-75
2021/12/23 02:13:37;;;;;;;63.03;28.63;;;;;;;-6.48;100.00;96401.22;5050758;28;20035;-75
2021/12/23 02:16:04;;;;;;;58.08;28.35;;;;;;;-6.45;100.00;96405.38;5045989;28;20032;-75
2021/12/23 02:18:30;;;;;;;63.00;28.77;;;;;;;-6.32;100.00;96393.84;5044651;28;20029;-76
2021/12/23 02:20:57;;;;;;;63.65;29.48;;;;;;;-6.25;100.00;96381.69;5046732;28;20033;-75
2021/12/23 02:23:25;;;;;;;62.65;29.75;;;;;;;-6.18;100.00;96383.13;5029899;28;20057;-76
2021/12/23 02:25:51;;;;;;;62.83;30.45;;;;;;;-6.10;100.00;96373.47;5047613;28;20083;-75
2021/12/23 02:28:19;;;;;;;64.25;30.08;;;;;;;-6.07;100.00;96377.63;5040619;28;20086;-76
2021/12/23 02:30:51;;;;;;;58.08;27.52;;;;;;;-6.02;100.00;96371.47;5045098;28;20581;-76
2021/12/23 02:33:18;;;;;;;64.32;30.17;;;;;;;-5.95;100.00;96357.53;5027002;28;20033;-75
2021/12/23 02:35:44;;;;;;;60.75;28.20;;;;;;;-5.93;100.00;96350.66;5049820;28;20658;-76
2021/12/23 02:38:09;;;;;;;58.50;27.47;;;;;;;-5.89;100.00;96355.63;5043847;28;20060;-75
2021/12/23 02:40:38;;;;;;;61.50;26.70;;;;;;;-5.81;100.00;96349.31;5055746;28;20104;-75
2021/12/23 02:43:19;;;;;;;55.85;26.48;;;;;;;-5.76;100.00;96365.34;5037266;28;20459;-75
2021/12/23 02:45:48;;;;;;;61.63;26.85;;;;;;;-5.76;100.00;96357.66;5046345;28;20363;-75
2021/12/23 02:48:19;;;;;;;60.17;27.60;;;;;;;-5.67;100.00;96364.16;5040349;28;20064;-75
2021/12/23 02:50:49;;;;;;;61.05;26.83;;;;;;;-5.65;100.00;96356.44;5045721;28;20053;-76
2021/12/23 02:53:15;;;;;;;58.15;26.52;;;;;;;-5.65;100.00;96354.69;5045525;28;20029;-76
2021/12/23 02:55:42;;;;;;;54.90;25.90;;;;;;;-5.67;100.00;96341.09;5029306;28;20502;-76
2021/12/23 02:58:09;;;;;;;55.05;26.35;;;;;;;-5.71;100.00;96337.00;5035467;28;20016;-75
2021/12/23 03:00:36;;;;;;;59.08;26.85;;;;;;;-5.70;100.00;96342.06;5045827;28;20071;-76
2021/12/23 03:03:02;;;;;;;58.65;26.73;;;;;;;-5.64;100.00;96332.47;5046174;28;20040;-75
2021/12/23 03:05:28;;;;;;;57.37;25.10;;;;;;;-5.63;100.00;96342.69;5033908;28;20027;-76
2021/12/23 03:07:54;;;;;;;58.53;26.43;;;;;;;-5.65;100.00;96331.66;5055733;28;20036;-76
2021/12/23 03:10:22;;;;;;;61.83;27.73;;;;;;;-5.59;100.00;96328.03;5055970;28;20025;-76
2021/12/23 03:12:49;;;;;;;57.45;26.55;;;;;;;-5.62;100.00;96323.84;5047263;28;20032;-76
2021/12/23 03:15:15;;;;;;;56.80;26.45;;;;;;;-5.68;100.00;96327.47;5046886;28;20032;-76
2021/12/23 03:17:41;;;;;;;61.00;26.37;;;;;;;-5.61;100.00;96325.50;5028098;28;20486;-76
2021/12/23 03:20:07;;;;;;;54.63;25.90;;;;;;;-5.66;100.00;96324.03;5042011;28;20037;-76
2021/12/23 03:22:33;;;;;;;63.83;29.08;;;;;;;-5.60;100.00;96316.94;5034236;28;20017;-75
2021/12/23 03:24:59;;;;;;;57.03;25.70;;;;;;;-5.65;100.00;96313.72;5052981;28;20039;-75
2021/12/23 03:27:24;;;;;;;59.67;28.27;;;;;;;-5.60;100.00;96310.97;5046753;28;20037;-76
2021/12/23 03:29:51;;;;;;;54.37;26.17;;;;;;;-5.64;100.00;96305.13;5032100;28;20033;-76
2021/12/23 03:32:17;;;;;;;69.35;29.33;;;;;;;-5.62;100.00;96305.09;5045263;28;20032;-76
2021/12/23 03:34:44;;;;;;;57.03;25.93;;;;;;;-5.69;100.00;96304.50;5050713;28;20478;-76
2021/12/23 03:37:10;;;;;;;67.28;26.50;;;;;;;-5.63;100.00;96299.13;5050774;28;20436;-75
2021/12/23 03:39:36;;;;;;;62.47;27.07;;;;;;;-5.63;100.00;96298.28;5051770;28;20036;-76
2021/12/23 03:42:02;;;;;;;64.40;27.63;;;;;;;-5.63;100.00;96299.13;5041565;28;20025;-76
2021/12/23 03:44:27;;;;;;;62.90;27.00;;;;;;;-5.54;100.00;96293.63;5046260;28;20032;-76
2021/12/23 03:46:54;;;;;;;59.57;26.30;;;;;;;-5.63;100.00;96283.75;5047417;28;20040;-75
2021/12/23 03:49:20;;;;;;;64.78;27.17;;;;;;;-5.63;100.00;96280.34;5038057;28;20033;-75
2021/12/23 03:51:45;;;;;;;66.20;27.57;;;;;;;-5.61;100.00;96281.94;5055238;28;20037;-75
2021/12/23 03:54:11;;;;;;;63.63;29.23;;;;;;;-5.60;100.00;96273.41;5050640;28;20037;-76
2021/12/23 03:56:37;;;;;;;62.30;27.87;;;;;;;-5.65;100.00;96261.66;5047597;28;20115;-77
2021/12/23 03:59:05;;;;;;;59.53;28.43;;;;;;;-5.65;100.00;96262.47;5031514;28;20398;-76
2021/12/23 04:01:31;;;;;;;58.65;26.50;;;;;;;-5.63;100.00;96263.25;5047952;28;20395;-76
2021/12/23 04:03:57;;;;;;;62.50;27.53;;;;;;;-5.63;100.00;96260.69;5029123;28;20025;-76
2021/12/23 04:06:23;;;;;;;55.13;24.40;;;;;;;-5.61;100.00;96261.47;5042422;28;20134;-75
2021/12/23 04:08:49;;;;;;;62.78;27.65;;;;;;;-5.62;100.00;96251.28;5029941;28;20592;-75
2021/12/23 04:11:16;;;;;;;59.30;27.17;;;;;;;-5.54;100.00;96260.31;5040869;28;20108;-76
2021/12/23 04:13:42;;;;;;;58.35;26.40;;;;;;;-5.54;100.00;96265.44;5054585;28;20510;-76
2021/12/23 04:16:07;;;;;;;53.27;25.30;;;;;;;-5.55;100.00;96263.78;5023885;28;20033;-76
2021/12/23 04:18:34;;;;;;;55.27;24.93;;;;;;;-5.56;100.00;96262.13;5047269;28;20021;-76
2021/12/23 04:20:59;;;;;;;54.97;24.63;;;;;;;-5.55;100.00;96245.03;5054343;28;20024;-75
2021/12/23 04:23:28;;;;;;;60.13;26.53;;;;;;;-5.58;100.00;96250.25;5040328;28;20035;-75
2021/12/23 04:25:55;;;;;;;56.97;25.38;;;;;;;-5.55;100.00;96248.41;5047220;28;20036;-76
2021/12/23 04:28:22;;;;;;;62.60;25.27;;;;;;;-5.57;100.00;96260.44;5039563;28;20055;-76
2021/12/23 04:30:48;;;;;;;58.67;25.33;;;;;;;-5.49;100.00;96243.03;5057223;28;20067;-76
2021/12/23 04:33:14;;;;;;;56.67;26.35;;;;;;;-5.55;100.00;96247.56;5052201;28;20562;-75
2021/12/23 04:35:40;;;;;;;56.60;24.13;;;;;;;-5.61;100.00;96240.97;5050808;28;20123;-76
2021/12/23 04:38:07;;;;;;;53.27;22.97;;;;;;;-5.64;100.00;96247.94;5052338;28;20037;-75
2021/12/23 04:40:34;;;;;;;55.87;25.23;;;;;;;-5.64;100.00;96248.75;5032943;28;20036;-76
2021/12/23 04:43:05;;;;;;;59.38;24.08;;;;;;;-5.63;100.00;96253.03;5053902;28;20458;-76
2021/12/23 04:45:33;;;;;;;55.77;25.77;;;;;;;-5.66;100.00;96255.69;5052672;28;20394;-76
2021/12/23 04:47:59;;;;;;;53.92;23.08;;;;;;;-5.61;100.00;96261.47;5049872;28;20453;-75
2021/12/23 04:50:25;;;;;;;59.33;25.43;;;;;;;-5.65;100.00;96252.22;5047694;28;20033;-76
2021/12/23 04:52:51;;;;;;;60.90;27.97;;;;;;;-5.70;100.00;96254.13;5027479;28;20025;-75
2021/12/23 04:55:18;;;;;;;57.07;25.73;;;;;;;-5.72;100.00;96250.81;5028252;28;20067;-76
2021/12/23 04:57:44;;;;;;;54.45;24.65;;;;;;;-5.72;100.00;96245.69;5057328;28;20481;-76
2021/12/23 05:00:16;;;;;;;60.17;26.40;;;;;;;-5.73;100.00;96244.03;5048206;28;20048;-75
2021/12/23 05:02:42;;;;;;;59.03;26.02;;;;;;;-5.71;100.00;96242.22;5049856;28;20071;-76
2021/12/23 05:05:11;;;;;;;57.80;24.90;;;;;;;-5.65;100.00;96241.16;5032482;28;20345;-76
2021/12/23 05:07:37;;;;;;;57.42;24.17;;;;;;;-5.65;100.00;96230.91;5047942;28;20036;-76
2021/12/23 05:10:05;;;;;;;56.53;24.40;;;;;;;-5.71;100.00;96237.94;5050136;28;20037;-75
2021/12/23 05:12:30;;;;;;;57.80;26.48;;;;;;;-5.70;100.00;96234.50;5030880;28;20518;-76
2021/12/23 05:14:56;;;;;;;61.47;27.17;;;;;;;-5.68;100.00;96217.31;5049459;28;20437;-76
2021/12/23 05:17:24;;;;;;;58.73;23.90;;;;;;;-5.64;100.00;96223.16;5029187;28;20071;-76
2021/12/23 05:19:50;;;;;;;60.60;26.50;;;;;;;-5.66;100.00;96214.72;5033003;28;20047;-76
2021/12/23 05:22:18;;;;;;;63.17;26.33;;;;;;;-5.62;100.00;96220.53;5048754;28;20391;-76
2021/12/23 05:24:43;;;;;;;58.97;25.65;;;;;;;-5.65;100.00;96210.41;5051244;28;20404;-76
2021/12/23 05:27:09;;;;;;;63.27;25.87;;;;;;;-5.61;100.00;96211.94;5050407;28;20049;-76
2021/12/23 05:29:35;;;;;;;63.13;26.17;;;;;;;-5.59;100.00;96215.28;5037148;28;20037;-76
2021/12/23 05:32:00;;;;;;;57.20;24.53;;;;;;;-5.58;100.00;96222.06;5032153;28;20025;-78
2021/12/23 05:34:26;;;;;;;56.43;24.33;;;;;;;-5.58;100.00;96212.66;5032700;28;20056;-76
2021/12/23 05:36:52;;;;;;;60.50;25.93;;;;;;;-5.54;100.00;96209.06;5035561;28;20033;-76
2021/12/23 05:39:17;;;;;;;61.67;26.97;;;;;;;-5.48;100.00;96205.44;5052720;28;20045;-75
2021/12/23 05:41:43;;;;;;;56.67;25.30;;;;;;;-5.47;100.00;96187.41;5043454;28;20021;-76
2021/12/23 05:44:10;;;;;;;53.30;23.77;;;;;;;-5.42;100.00;96189.00;5038248;28;20033;-75
2021/12/23 05:46:36;;;;;;;53.05;23.50;;;;;;;-5.38;100.00;96175.16;5049537;28;20032;-76
2021/12/23 05:49:01;;;;;;;60.50;25.80;;;;;;;-5.36;100.00;96186.19;5047280;28;20029;-77
2021/12/23 05:51:27;;;;;;;58.73;25.97;;;;;;;-5.26;100.00;96172.06;5041683;28;20033;-75
2021/12/23 05:53:53;;;;;;;54.10;25.23;;;;;;;-5.21;100.00;96176.09;5048479;28;20024;-75
2021/12/23 05:56:18;;;;;;;54.87;24.63;;;;;;;-5.21;100.00;96181.22;5029163;28;20039;-76
2021/12/23 05:58:45;;;;;;;53.77;23.47;;;;;;;-5.23;100.00;96172.78;5045268;28;20487;-79
2021/12/23 06:01:11;;;;;;;53.45;24.08;;;;;;;-5.25;100.00;96173.72;5050418;28;20075;-76
2021/12/23 06:03:39;;;;;;;57.83;25.53;;;;;;;-5.22;100.00;96176.16;5041556;28;20549;-76
2021/12/23 06:06:05;;;;;;;49.60;22.52;;;;;;;-5.24;100.00;96186.47;5031254;28;20098;-75
2021/12/23 06:08:30;;;;;;;49.97;24.73;;;;;;;-5.22;100.00;96189.81;5047779;28;20033;-76
2021/12/23 06:10:56;;;;;;;56.30;25.93;;;;;;;-5.29;100.00;96193.53;5050075;28;20032;-76
2021/12/23 06:13:21;;;;;;;50.63;22.30;;;;;;;-5.29;100.00;96187.59;5046879;28;20124;-76
2021/12/23 06:15:47;;;;;;;51.20;23.53;;;;;;;-5.21;100.00;96182.94;5031424;28;20036;-76
2021/12/23 06:18:13;;;;;;;52.27;23.83;;;;;;;-5.19;100.00;96185.47;5047522;28;20032;-76
2021/12/23 06:20:39;;;;;;;57.10;25.27;;;;;;;-5.26;100.00;96182.34;5047641;28;20028;-76
2021/12/23 06:23:05;;;;;;;55.27;24.33;;;;;;;-5.35;100.00;96177.59;5027546;28;20033;-76
2021/12/23 06:25:31;;;;;;;56.17;24.50;;;;;;;-5.31;100.00;96173.97;5048762;28;20024;-76
2021/12/23 06:27:57;;;;;;;58.80;26.37;;;;;;;-5.26;100.00;96172.06;5032179;28;21266;-76
2021/12/23 06:30:22;;;;;;;55.73;25.33;;;;;;;-5.26;100.00;96172.06;5048211;28;20112;-76
2021/12/23 06:32:54;;;;;;;58.73;25.57;;;;;;;-5.29;100.00;96172.19;5043982;28;20029;-76
2021/12/23 06:35:22;;;;;;;57.33;25.77;;;;;;;-5.29;100.00;96155.09;5047637;28;20032;-76
2021/12/23 06:37:48;;;;;;;52.50;23.98;;;;;;;-5.33;100.00;96161.25;5048736;28;20027;-75
2021/12/23 06:40:14;;;;;;;54.47;24.87;;;;;;;-5.39;100.00;96142.72;5046508;28;20128;-75
2021/12/23 06:42:41;;;;;;;56.75;25.13;;;;;;;-5.29;100.00;96157.66;5048281;28;20037;-76
2021/12/23 06:45:07;;;;;;;63.88;27.20;;;;;;;-5.26;100.00;96154.13;5036899;28;20029;-76
2021/12/23 06:47:37;;;;;;;62.22;27.05;;;;;;;-5.30;100.00;96152.56;5030603;28;20040;-76
2021/12/23 06:50:05;;;;;;;56.63;25.27;;;;;;;-5.27;100.00;96150.72;5046967;28;20033;-76
2021/12/23 06:52:31;;;;;;;60.23;24.83;;;;;;;-5.19;100.00;96150.41;5025874;28;20415;-76
2021/12/23 06:54:58;;;;;;;66.07;26.45;;;;;;;-5.21;100.00;96153.03;5048294;28;20466;-76
2021/12/23 06:57:26;;;;;;;55.70;26.00;;;;;;;-5.19;100.00;96152.97;5024324;28;20084;-76
2021/12/23 06:59:52;;;;;;;59.87;27.47;;;;;;;-5.19;100.00;96149.56;5043388;28;20482;-76
2021/12/23 07:02:17;;;;;;;57.13;25.40;;;;;;;-5.17;100.00;96156.28;5053427;28;20542;-76
2021/12/23 07:04:45;;;;;;;61.77;24.93;;;;;;;-5.21;100.00;96147.91;5045701;28;20035;-76
2021/12/23 07:07:12;;;;;;;50.83;24.57;;;;;;;-5.17;100.00;96132.38;5043587;28;20478;-76
2021/12/23 07:09:40;;;;;;;58.38;27.25;;;;;;;-5.11;100.00;96150.06;5029822;28;20561;-76
2021/12/23 07:12:09;;;;;;;56.63;26.23;;;;;;;-5.13;100.00;96152.72;5045636;28;20085;-76
2021/12/23 07:14:36;;;;;;;54.35;24.88;;;;;;;-5.05;100.00;96148.06;5046788;28;21039;-76
2021/12/23 07:17:03;;;;;;;55.03;25.27;;;;;;;-5.00;100.00;96148.72;5027716;28;20060;-76
2021/12/23 07:19:28;;;;;;;55.63;25.60;;;;;;;-4.98;100.00;96157.16;5043145;28;20474;-76
2021/12/23 07:21:54;;;;;;;55.13;24.50;;;;;;;-4.93;100.00;96163.81;5045114;28;20452;-76
2021/12/23 07:24:20;;;;;;;44.93;23.13;;;;;;;-4.90;100.00;96168.81;5037940;28;20077;-76
2021/12/23 07:26:46;;;;;;;46.73;22.80;;;;;;;-4.88;100.00;96167.03;5046953;28;20036;-77
2021/12/23 07:29:12;;;;;;;58.27;25.57;;;;;;;-4.88;100.00;96164.47;5048643;28;20571;-75
2021/12/23 07:31:38;;;;;;;51.87;25.43;;;;;;;-4.87;100.00;96159.25;5028333;28;20571;-75
2021/12/23 07:34:04;;;;;;;50.43;23.60;;;;;;;-4.85;100.00;96157.47;5023878;28;20545;-79
2021/12/23 07:36:30;;;;;;;52.63;23.63;;;;;;;-4.83;100.00;96158.25;5030339;28;20740;-76
2021/12/23 07:38:57;;;;;;;54.40;25.37;;;;;;;-4.75;100.00;96160.47;5045516;28;20107;-76
2021/12/23 07:41:26;;;;;;;54.40;23.77;;;;;;;-4.77;100.00;96139.16;5050429;28;20540;-76
2021/12/23 07:46:21;;;;;;;51.97;23.60;;;;;;;-4.59;100.00;96147.78;5045541;28;20447;-76
2021/12/23 07:48:47;;;;;;;47.40;24.27;;;;;;;-4.53;100.00;96152.59;5041556;28;20529;-76
2021/12/23 07:51:13;;;;;;;54.70;25.00;;;;;;;-4.50;100.00;96140.47;5050901;28;20032;-76
2021/12/23 07:53:38;;;;;;;51.50;24.13;;;;;;;-4.46;100.00;96135.19;5029067;28;20028;-76
2021/12/23 07:56:04;;;;;;;52.10;25.20;;;;;;;-4.40;100.00;96125.47;5049178;28;20036;-76
2021/12/23 07:58:31;;;;;;;51.30;25.10;;;;;;;-4.23;100.00;96122.13;5031033;28;20028;-76
2021/12/23 08:00:56;;;;;;;47.00;21.27;;;;;;;-4.15;100.00;96121.78;5047960;28;20025;-76
2021/12/23 08:03:22;;;;;;;52.00;24.30;;;;;;;-4.12;100.00;96134.47;5025387;28;20467;-77
2021/12/23 08:05:48;;;;;;;46.60;21.90;;;;;;;-4.09;100.00;96131.75;5050073;28;20111;-76
2021/12/23 08:08:14;;;;;;;55.67;24.83;;;;;;;-4.06;100.00;96127.31;5033427;28;20426;-75
2021/12/23 08:10:40;;;;;;;51.97;23.47;;;;;;;-3.99;100.00;96135.56;5032144;28;20468;-76
2021/12/23 08:13:07;;;;;;;54.03;26.03;;;;;;;-3.98;100.00;96139.78;5043622;28;20464;-76
2021/12/23 08:15:34;;;;;;;51.00;25.80;;;;;;;-3.87;100.00;96124.69;5050059;28;20024;-76
2021/12/23 08:17:59;;;;;;;49.43;24.23;;;;;;;-3.71;100.00;96123.94;5049821;28;20991;-76
2021/12/23 08:20:25;;;;;;;48.17;23.97;;;;;;;-3.72;100.00;96130.84;5049345;28;20458;-77
2021/12/23 08:22:51;;;;;;;48.77;24.30;;;;;;;-3.69;100.00;96122.97;5042991;28;20021;-76
2021/12/23 08:25:17;;;;;;;49.03;24.10;;;;;;;-3.67;100.00;96121.13;5048084;28;20466;-76
2021/12/23 08:27:43;;;;;;;57.30;25.50;;;;;;;-3.60;100.00;96117.34;5037427;28;20674;-76
2021/12/23 08:30:12;;;;;;;54.00;25.60;;;;;;;-3.49;100.00;96114.25;5037880;28;20035;-76
2021/12/23 08:32:38;;;;;;;45.00;22.80;;;;;;;-3.44;100.00;96116.59;5050064;28;20478;-76
2021/12/23 08:35:05;;;;;;;47.97;23.73;;;;;;;-3.42;100.00;96115.63;5030351;28;20479;-76
2021/12/23 08:37:31;;;;;;;45.57;23.13;;;;;;;-3.20;100.00;96115.34;5047590;28;20462;-77
2021/12/23 08:39:57;;;;;;;51.60;25.17;;;;;;;-3.08;100.00;96099.31;5050667;28;20486;-76
2021/12/23 08:42:22;;;;;;;48.37;23.40;;;;;;;-2.97;100.00;96093.59;5049469;28;20071;-78
2021/12/23 08:44:48;;;;;;;51.77;24.97;;;;;;;-2.81;100.00;96092.81;5035905;28;20025;-77
2021/12/23 08:47:14;;;;;;;57.93;25.63;;;;;;;-2.46;100.00;96091.72;5040584;28;20064;-76
2021/12/23 08:49:43;;;;;;;51.03;25.13;;;;;;;-2.44;100.00;96102.78;5054458;28;20449;-77
2021/12/23 08:52:09;;;;;;;46.53;22.73;;;;;;;-2.15;100.00;96096.03;5037841;28;20513;-76
2021/12/23 08:54:35;;;;;;;48.53;24.23;;;;;;;-2.24;100.00;96086.22;5051122;28;20817;-76
2021/12/23 08:57:01;;;;;;;46.30;22.93;;;;;;;-2.31;100.00;96095.22;5050205;28;20463;-77
2021/12/23 08:59:27;;;;;;;47.60;24.70;;;;;;;-2.32;100.00;96095.28;5060502;28;20025;-78
2021/12/23 09:01:54;;;;;;;47.17;24.07;;;;;;;-2.36;100.00;96089.47;5049471;28;20107;-77
2021/12/23 09:04:21;;;;;;;50.27;23.70;;;;;;;-2.31;100.00;96087.50;5052966;28;20044;-77
2021/12/23 09:06:47;;;;;;;46.57;23.57;;;;;;;-2.32;100.00;96085.81;5037034;28;20443;-76
2021/12/23 09:09:12;;;;;;;50.90;25.37;;;;;;;-2.32;100.00;96090.97;5052902;28;20475;-76
2021/12/23 09:11:38;;;;;;;48.33;23.77;;;;;;;-2.05;100.00;96085.19;5032092;28;20526;-76
2021/12/23 09:14:05;;;;;;;45.70;23.53;;;;;;;-2.00;100.00;96088.34;5039818;28;20593;-77
2021/12/23 09:16:30;;;;;;;48.27;23.50;;;;;;;-1.77;100.00;96087.88;5046615;28;20051;-77
2021/12/23 09:18:56;;;;;;;45.20;23.00;;;;;;;-1.58;100.00;96086.81;5027801;28;21079;-77
2021/12/23 09:21:22;;;;;;;50.50;24.70;;;;;;;-1.45;100.00;96080.03;5052992;28;20021;-77
2021/12/23 09:23:47;;;;;;;43.23;23.23;;;;;;;-1.57;100.00;96084.16;5051444;28;20052;-76
2021/12/23 09:26:13;;;;;;;43.70;22.40;;;;;;;-1.51;100.00;96082.97;5049558;28;20029;-76
2021/12/23 09:34:03;;;;;;;53.67;26.13;;;;;;;-1.43;100.00;96080.78;5046512;28;20467;-77
2021/12/23 09:36:29;;;;;;;48.37;25.20;;;;;;;-1.54;100.00;96075.41;5029216;28;20610;-77
2021/12/23 09:38:57;;;;;;;49.63;23.73;;;;;;;-1.58;100.00;96076.50;5053042;28;20027;-77
2021/12/23 09:41:24;;;;;;;55.23;25.50;;;;;;;-1.66;100.00;96058.91;5041973;28;20085;-77
2021/12/23 09:43:51;;;;;;;51.97;26.73;;;;;;;-1.54;100.00;96052.19;5051294;28;20435;-77
2021/12/23 09:46:20;;;;;;;53.87;27.07;;;;;;;-1.38;100.00;96058.09;5051479;28;20447;-77
2021/12/23 09:48:47;;;;;;;53.87;31.37;;;;;;;-1.20;100.00;96057.03;5043457;28;20546;-77
2021/12/23 09:51:17;;;;;;;56.83;31.83;;;;;;;-0.92;100.00;96057.94;5039503;28;20516;-76
2021/12/23 09:53:45;;;;;;;63.53;32.60;;;;;;;-0.74;100.00;96050.81;5046234;28;20451;-77
2021/12/23 09:56:11;;;;;;;57.37;30.63;;;;;;;-0.67;100.00;96067.59;5031595;28;20502;-77
2021/12/23 09:58:37;;;;;;;55.00;29.67;;;;;;;-0.54;100.00;96065.06;5039808;28;20510;-78
2021/12/23 10:01:05;;;;;;;46.00;25.97;;;;;;;-0.43;100.00;96056.69;5048333;28;21194;-77
2021/12/23 10:03:31;;;;;;;40.40;19.70;;;;;;;-0.38;100.00;96049.44;5047119;28;20459;-77
2021/12/23 10:05:59;;;;;;;39.07;17.97;;;;;;;-0.32;100.00;96046.47;5032353;28;21263;-76
2021/12/23 10:08:28;;;;;;;36.17;19.73;;;;;;;-0.24;100.00;96037.31;5046195;28;20459;-78
2021/12/23 10:11:00;;;;;;;39.63;23.33;;;;;;;-0.11;100.00;96034.75;5029014;28;20471;-77
2021/12/23 10:38:14;;;;;;;40.80;21.50;;;;;;;0.39;100.00;96047.91;5045820;28;20450;-76
2021/12/23 10:40:44;;;;;;;41.97;23.73;;;;;;;0.36;100.00;96036.00;5029265;28;20471;-77
2021/12/23 10:43:27;;;;;;;36.83;20.50;;;;;;;0.46;100.00;96036.22;5043989;28;20575;-76
2021/12/23 10:45:57;;;;;;;65.80;31.33;;;;;;;0.22;100.00;96023.16;5047340;28;20436;-76
2021/12/23 10:48:26;;;;;;;55.10;28.80;;;;;;;0.24;100.00;96023.91;5026741;28;20071;-76
2021/12/23 10:51:00;;;;;;;38.83;21.13;;;;;;;0.23;100.00;96020.50;5042393;28;20483;-77
2021/12/23 10:59:20;;;;;;;48.58;25.65;;;;;;;0.10;100.00;96008.44;5034104;28;20472;-76
2021/12/23 11:02:28;;;;;;;47.60;24.53;;;;;;;0.20;100.00;96010.34;5031636;28;20068;-76
2021/12/23 11:05:18;;;;;;;48.50;23.17;;;;;;;0.19;100.00;95998.31;5048976;28;20519;-78
2021/12/23 11:08:02;;;;;;;42.37;22.73;;;;;;;0.24;100.00;96000.63;5048662;28;20478;-79
2021/12/23 11:27:33;;;;;;;39.53;20.80;;;;;;;0.38;100.00;95966.91;5046987;28;20485;-75
2021/12/23 11:41:30;;;;;;;41.60;21.63;;;;;;;0.36;100.00;95931.72;5057002;28;20451;-77
2021/12/23 11:44:01;;;;;;;39.30;19.57;;;;;;;0.42;100.00;95921.78;5029957;28;20506;-77
2021/12/23 11:46:34;;;;;;;35.00;19.30;;;;;;;0.49;100.00;95922.19;5046573;28;20431;-77
2021/12/23 11:49:02;;;;;;;38.90;20.23;;;;;;;0.54;100.00;95930.47;5054721;28;21027;-77
2021/12/23 11:54:11;;;;;;;30.67;17.97;;;;;;;0.72;100.00;95932.72;5046600;28;20461;-77
2021/12/23 11:56:43;;;;;;;32.67;16.73;;;;;;;0.68;99.84;95940.69;5043233;28;20436;-77
2021/12/23 11:59:13;;;;;;;30.53;16.57;;;;;;;0.66;96.87;95929.59;5044382;28;20538;-76
2021/12/23 12:01:54;;;;;;;29.33;15.63;;;;;;;0.75;95.80;95922.16;5034106;28;20455;-77
2021/12/23 12:04:37;;;;;;;25.67;14.70;;;;;;;0.75;94.71;95919.56;5032586;28;20486;-76
2021/12/23 12:07:24;;;;;;;23.15;12.73;;;;;;;0.67;95.44;95920.94;5048015;28;21174;-77
2021/12/23 12:09:57;;;;;;;33.67;17.80;;;;;;;0.66;94.63;95924.44;5035641;28;20056;-75
2021/12/23 12:12:24;;;;;;;23.33;13.13;;;;;;;0.62;95.51;95917.00;5048097;28;21041;-77
2021/12/23 12:14:54;;;;;;;27.53;15.27;;;;;;;0.62;96.62;95914.41;5049675;28;20020;-77
2021/12/23 12:17:26;;;;;;;28.67;16.10;;;;;;;0.69;97.07;95910.47;5049804;28;20448;-76
2021/12/23 12:19:58;;;;;;;25.77;12.77;;;;;;;0.72;96.72;95912.00;5049033;28;21357;-76
2021/12/23 12:23:04;;;;;;;26.43;14.33;;;;;;;0.86;95.58;95909.28;5050511;28;20304;-76
2021/12/23 12:25:30;;;;;;;28.00;15.40;;;;;;;0.86;95.71;95907.50;5045411;28;20517;-75
2021/12/23 12:27:55;;;;;;;22.73;13.10;;;;;;;0.92;95.20;95898.50;5036146;28;20455;-75
2021/12/23 12:30:46;;;;;;;23.47;13.73;;;;;;;0.99;94.83;95894.53;5040164;28;20052;-77